Time;durP1;ratioP1;P1;durP2;ratioP2;P2;SDS_P1;SDS_P2;PMS_P1;PMS_P2;Temp;Humidity;BMP_temperature;BMP_pressure;BME280_temperature;BME280_humidity;BME280_pressure;Samples;Min_cycle;Max_cycle;Signal;HPM_P1;HPM_P2
2022/12/27 00:00:48;;;;;;;;;;;20.50;58.50;;;;;;4969247;28;1365;-70
2022/12/27 00:03:14;;;;;;;;;;;20.50;58.60;;;;;;4969653;28;1432;-71
2022/12/27 00:05:43;;;;;;;;;;;20.50;58.60;;;;;;4985395;28;1315;-73
2022/12/27 00:08:08;;;;;;;;;;;20.50;58.70;;;;;;4967359;28;1119;-73
2022/12/27 00:10:34;;;;;;;;;;;20.40;58.70;;;;;;4969586;28;1280;-72
2022/12/27 00:12:59;;;;;;;;;;;20.40;58.80;;;;;;4969658;28;1031;-72
2022/12/27 00:15:25;;;;;;;;;;;20.40;58.80;;;;;;4970849;28;1605;-72
2022/12/27 00:17:50;;;;;;;;;;;20.40;58.80;;;;;;4970891;28;1906;-72
2022/12/27 00:20:16;;;;;;;;;;;20.40;58.90;;;;;;4970468;28;1385;-72
2022/12/27 00:22:41;;;;;;;;;;;20.30;58.90;;;;;;4953178;28;1190;-72
2022/12/27 00:25:07;;;;;;;;;;;20.30;58.90;;;;;;4972395;28;870;-72
2022/12/27 00:27:33;;;;;;;;;;;20.30;59.00;;;;;;4973355;28;1252;-72
2022/12/27 00:29:58;;;;;;;;;;;20.30;59.00;;;;;;4974130;28;1332;-72
2022/12/27 00:32:24;;;;;;;;;;;20.30;59.10;;;;;;4974733;28;1011;-72
2022/12/27 00:34:49;;;;;;;;;;;20.30;59.10;;;;;;4973298;28;899;-72
2022/12/27 00:37:15;;;;;;;;;;;20.20;59.10;;;;;;4974345;28;1898;-72
2022/12/27 00:39:40;;;;;;;;;;;20.20;59.20;;;;;;4974323;28;1249;-72
2022/12/27 00:42:06;;;;;;;;;;;20.20;59.20;;;;;;4972959;28;880;-72
2022/12/27 00:44:31;;;;;;;;;;;20.20;59.20;;;;;;4974221;28;824;-72
2022/12/27 00:46:57;;;;;;;;;;;20.20;59.30;;;;;;4974053;28;784;-72
2022/12/27 00:49:22;;;;;;;;;;;20.20;59.40;;;;;;4972721;28;951;-72
2022/12/27 00:51:47;;;;;;;;;;;20.20;59.40;;;;;;4972729;28;1336;-72
2022/12/27 00:54:13;;;;;;;;;;;20.10;59.40;;;;;;4954990;28;1206;-72
2022/12/27 00:56:38;;;;;;;;;;;20.10;59.40;;;;;;4972493;28;1911;-72
2022/12/27 00:59:04;;;;;;;;;;;20.10;59.40;;;;;;4974573;28;871;-72
2022/12/27 01:01:32;;;;;;;;;;;20.10;59.50;;;;;;4972932;28;1289;-72
2022/12/27 01:03:57;;;;;;;;;;;20.10;59.50;;;;;;4973539;28;1405;-71
2022/12/27 01:06:24;;;;;;;;;;;20.10;59.50;;;;;;4972320;28;969;-70
2022/12/27 01:08:50;;;;;;;;;;;20.00;59.50;;;;;;4972596;28;876;-71
2022/12/27 01:11:16;;;;;;;;;;;20.00;59.60;;;;;;4972076;28;1293;-71
2022/12/27 01:13:41;;;;;;;;;;;20.00;59.60;;;;;;4972704;28;1039;-71
2022/12/27 01:16:08;;;;;;;;;;;20.00;59.60;;;;;;4972441;28;769;-71
2022/12/27 01:18:33;;;;;;;;;;;20.00;59.70;;;;;;4972488;28;1918;-71
2022/12/27 01:21:03;;;;;;;;;;;20.00;59.70;;;;;;4971809;28;1415;-71
2022/12/27 01:23:30;;;;;;;;;;;20.00;59.70;;;;;;4972305;28;948;-71
2022/12/27 01:25:59;;;;;;;;;;;19.90;59.70;;;;;;4972189;28;812;-71
2022/12/27 01:28:25;;;;;;;;;;;19.90;59.70;;;;;;4972194;28;1185;-72
2022/12/27 01:30:50;;;;;;;;;;;19.90;59.80;;;;;;4972451;28;1264;-71
2022/12/27 01:33:15;;;;;;;;;;;19.90;59.80;;;;;;4974060;28;808;-71
2022/12/27 01:35:41;;;;;;;;;;;19.90;59.80;;;;;;4973614;28;881;-72
2022/12/27 01:38:06;;;;;;;;;;;19.90;59.80;;;;;;4974311;28;1899;-71
2022/12/27 01:40:34;;;;;;;;;;;19.90;59.80;;;;;;4973051;28;1243;-72
2022/12/27 01:42:59;;;;;;;;;;;19.80;59.80;;;;;;4972814;28;1325;-72
2022/12/27 01:45:25;;;;;;;;;;;19.80;59.80;;;;;;4973034;28;1360;-72
2022/12/27 01:48:00;;;;;;;;;;;19.80;59.90;;;;;;4969579;28;1243;-72
2022/12/27 01:50:25;;;;;;;;;;;19.80;60.00;;;;;;4971110;28;1378;-72
2022/12/27 01:52:55;;;;;;;;;;;19.80;59.90;;;;;;4972992;28;908;-72
2022/12/27 01:55:22;;;;;;;;;;;19.80;60.00;;;;;;4971566;28;828;-72
2022/12/27 01:57:48;;;;;;;;;;;19.80;60.00;;;;;;4972761;28;1907;-72
2022/12/27 02:00:13;;;;;;;;;;;19.80;60.00;;;;;;4971593;28;1312;-72
2022/12/27 02:02:39;;;;;;;;;;;19.80;60.10;;;;;;4952512;28;1245;-72
2022/12/27 02:05:04;;;;;;;;;;;19.80;60.10;;;;;;4971279;28;1400;-73
2022/12/27 02:07:32;;;;;;;;;;;19.80;60.10;;;;;;4971569;28;836;-72
2022/12/27 02:09:58;;;;;;;;;;;19.70;60.10;;;;;;4971133;28;1374;-72
2022/12/27 02:12:23;;;;;;;;;;;19.70;60.10;;;;;;4971094;28;998;-72
2022/12/27 02:14:49;;;;;;;;;;;19.70;60.10;;;;;;4955265;28;1190;-72
2022/12/27 02:17:20;;;;;;;;;;;19.70;60.90;;;;;;4972522;28;1965;-72
2022/12/27 02:19:48;;;;;;;;;;;19.70;60.20;;;;;;4943386;28;1414;-72
2022/12/27 02:22:16;;;;;;;;;;;19.70;61.00;;;;;;4972436;28;825;-72
2022/12/27 02:25:00;;;;;;;;;;;19.70;60.20;;;;;;4972143;28;966;-72
2022/12/27 02:27:25;;;;;;;;;;;19.70;61.00;;;;;;4972302;28;876;-72
2022/12/27 02:29:56;;;;;;;;;;;19.70;60.30;;;;;;4971456;28;1351;-71
2022/12/27 02:32:27;;;;;;;;;;;19.60;60.20;;;;;;4951922;28;1160;-72
2022/12/27 02:34:56;;;;;;;;;;;19.70;60.50;;;;;;4970549;28;904;-71
2022/12/27 02:37:23;;;;;;;;;;;19.70;60.80;;;;;;4970158;28;1896;-71
2022/12/27 02:39:48;;;;;;;;;;;19.70;60.90;;;;;;4969638;28;1374;-71
2022/12/27 02:53:25;;;;;;;;;;;19.80;61.30;;;;;;4985477;28;1424;-71
2022/12/27 02:59:10;;;;;;;;;;;19.80;61.40;;;;;;4970067;28;1903;-71
2022/12/27 03:04:30;;;;;;;;;;;19.70;61.30;;;;;;4971609;28;1236;-70
2022/12/27 03:07:03;;;;;;;;;;;19.80;61.40;;;;;;4970548;28;867;-71
2022/12/27 03:18:05;;;;;;;;;;;19.80;61.50;;;;;;4969941;28;1923;-71
2022/12/27 03:25:58;;;;;;;;;;;19.70;61.50;;;;;;4971702;28;810;-71
2022/12/27 03:34:30;;;;;;;;;;;19.70;61.60;;;;;;4972564;28;754;-71
2022/12/27 03:39:40;;;;;;;;;;;19.70;61.80;;;;;;4970654;28;1368;-71
2022/12/27 03:44:51;;;;;;;;;;;19.70;61.80;;;;;;4970279;28;855;-72
2022/12/27 03:47:21;;;;;;;;;;;19.70;62.00;;;;;;4970144;28;931;-72
2022/12/27 03:49:47;;;;;;;;;;;19.70;61.80;;;;;;4944104;28;1271;-72
2022/12/27 03:52:20;;;;;;;;;;;19.70;62.00;;;;;;4953896;28;826;-72
2022/12/27 03:54:46;;;;;;;;;;;19.70;62.40;;;;;;4970134;28;880;-72
2022/12/27 03:57:12;;;;;;;;;;;19.70;62.40;;;;;;4969969;28;1907;-72
2022/12/27 03:59:38;;;;;;;;;;;19.70;62.30;;;;;;4974015;28;1400;-72
2022/12/27 04:02:03;;;;;;;;;;;19.70;62.70;;;;;;4973834;28;908;-72
2022/12/27 04:04:29;;;;;;;;;;;19.70;62.30;;;;;;4974103;28;1194;-72
2022/12/27 04:06:54;;;;;;;;;;;19.70;62.20;;;;;;4973694;28;915;-72
2022/12/27 04:36:43;;;;;;;;;;;19.70;62.60;;;;;;4974020;28;1914;-71
2022/12/27 04:39:08;;;;;;;;;;;19.70;62.60;;;;;;4975231;28;1359;-71
2022/12/27 04:55:19;;;;;;;;;;;19.70;62.80;;;;;;4974147;28;849;-71
2022/12/27 04:57:44;;;;;;;;;;;19.70;62.80;;;;;;4972697;28;1910;-71
2022/12/27 05:02:55;;;;;;;;;;;19.70;62.90;;;;;;4971849;28;1115;-72
2022/12/27 05:05:20;;;;;;;;;;;19.70;63.10;;;;;;4972440;28;1022;-72
2022/12/27 05:15:58;;;;;;;;;;;19.70;63.20;;;;;;4972735;28;777;-72
2022/12/27 05:18:24;;;;;;;;;;;19.70;63.20;;;;;;4973301;28;1915;-72
2022/12/27 05:20:49;;;;;;;;;;;19.70;63.20;;;;;;4973282;28;1245;-72
2022/12/27 05:25:59;;;;;;;;;;;19.80;63.10;;;;;;4973570;28;804;-71
2022/12/27 05:28:24;;;;;;;;;;;19.80;63.10;;;;;;4973432;28;816;-71
2022/12/27 05:30:50;;;;;;;;;;;19.80;63.00;;;;;;4972788;28;1756;-71
2022/12/27 05:33:15;;;;;;;;;;;19.80;62.90;;;;;;4973239;28;1739;-72
2022/12/27 05:35:41;;;;;;;;;;;19.90;62.70;;;;;;4973255;28;835;-72
2022/12/27 05:38:06;;;;;;;;;;;19.90;62.60;;;;;;4973139;28;1914;-72
2022/12/27 05:40:32;;;;;;;;;;;19.90;62.50;;;;;;4971603;28;1292;-71
2022/12/27 05:42:58;;;;;;;;;;;19.90;62.50;;;;;;4972174;28;857;-72
2022/12/27 05:45:23;;;;;;;;;;;20.00;62.40;;;;;;4972357;28;875;-72
2022/12/27 05:47:49;;;;;;;;;;;19.90;62.30;;;;;;4971864;28;1204;-71
2022/12/27 05:50:14;;;;;;;;;;;20.00;62.40;;;;;;4972703;28;1300;-72
2022/12/27 05:52:40;;;;;;;;;;;20.00;62.20;;;;;;4973050;28;935;-71
2022/12/27 05:55:06;;;;;;;;;;;20.00;62.20;;;;;;4972893;28;878;-72
2022/12/27 05:57:32;;;;;;;;;;;20.00;62.20;;;;;;4971576;28;1973;-71
2022/12/27 05:59:57;;;;;;;;;;;20.00;62.10;;;;;;4972180;28;1296;-72
2022/12/27 06:02:22;;;;;;;;;;;20.00;62.30;;;;;;4972648;28;952;-72
2022/12/27 06:04:48;;;;;;;;;;;20.00;62.20;;;;;;4972918;28;1264;-72
2022/12/27 06:07:14;;;;;;;;;;;20.00;62.10;;;;;;4973170;28;958;-72
2022/12/27 06:09:40;;;;;;;;;;;20.00;62.20;;;;;;4976300;28;1272;-72
2022/12/27 06:12:05;;;;;;;;;;;20.00;62.60;;;;;;4971526;28;838;-72
2022/12/27 06:14:31;;;;;;;;;;;20.10;62.50;;;;;;4971317;28;878;-72
2022/12/27 06:16:56;;;;;;;;;;;20.20;62.30;;;;;;4971165;28;1906;-72
2022/12/27 06:19:22;;;;;;;;;;;20.20;62.30;;;;;;4972391;28;847;-72
2022/12/27 06:21:47;;;;;;;;;;;20.30;62.10;;;;;;4972188;28;1236;-72
2022/12/27 06:24:13;;;;;;;;;;;20.40;62.00;;;;;;4971375;28;960;-72
2022/12/27 06:26:38;;;;;;;;;;;20.50;61.70;;;;;;4972332;28;891;-72
2022/12/27 06:29:04;;;;;;;;;;;20.60;61.50;;;;;;4972177;28;778;-72
2022/12/27 06:31:29;;;;;;;;;;;20.70;61.20;;;;;;4970827;28;1563;-72
2022/12/27 06:33:54;;;;;;;;;;;20.80;61.00;;;;;;4972353;28;896;-72
2022/12/27 06:36:21;;;;;;;;;;;20.80;60.70;;;;;;4972348;28;926;-72
2022/12/27 06:38:46;;;;;;;;;;;20.90;60.50;;;;;;4970780;28;1895;-72
2022/12/27 06:41:12;;;;;;;;;;;21.00;60.30;;;;;;4969729;28;1196;-72
2022/12/27 06:43:38;;;;;;;;;;;21.10;60.10;;;;;;4946889;28;1242;-72
2022/12/27 06:46:04;;;;;;;;;;;21.10;59.80;;;;;;4954884;28;2111;-73
2022/12/27 06:48:30;;;;;;;;;;;21.20;59.80;;;;;;4970258;28;2216;-72
2022/12/27 06:50:55;;;;;;;;;;;21.20;59.50;;;;;;4971388;28;1780;-72
2022/12/27 06:53:21;;;;;;;;;;;21.20;59.40;;;;;;4972042;28;1268;-72
2022/12/27 06:55:46;;;;;;;;;;;21.30;59.60;;;;;;4971231;28;947;-72
2022/12/27 06:58:12;;;;;;;;;;;21.30;59.40;;;;;;4972031;28;2362;-72
2022/12/27 07:00:38;;;;;;;;;;;21.30;59.40;;;;;;4971808;28;1276;-71
2022/12/27 07:03:03;;;;;;;;;;;21.30;59.40;;;;;;4971638;28;895;-71
2022/12/27 07:05:29;;;;;;;;;;;21.30;59.30;;;;;;4972023;28;1267;-71
2022/12/27 07:07:54;;;;;;;;;;;21.30;59.30;;;;;;4970952;28;848;-71
2022/12/27 07:10:20;;;;;;;;;;;21.40;59.40;;;;;;4975375;28;1418;-71
2022/12/27 07:12:45;;;;;;;;;;;21.30;59.40;;;;;;4971830;28;979;-73
2022/12/27 07:15:10;;;;;;;;;;;21.40;59.40;;;;;;4967121;28;1610;-71
2022/12/27 07:17:36;;;;;;;;;;;21.30;59.50;;;;;;4971021;28;2116;-71
2022/12/27 07:20:02;;;;;;;;;;;21.30;59.70;;;;;;4970803;28;1708;-71
2022/12/27 07:22:28;;;;;;;;;;;21.30;60.00;;;;;;4970059;28;843;-71
2022/12/27 07:24:53;;;;;;;;;;;21.30;60.10;;;;;;4971020;28;1015;-71
2022/12/27 07:27:19;;;;;;;;;;;21.30;60.50;;;;;;4969947;28;869;-71
2022/12/27 07:29:44;;;;;;;;;;;21.30;60.40;;;;;;4970970;28;1667;-70
2022/12/27 07:32:10;;;;;;;;;;;21.30;60.60;;;;;;4970943;28;884;-71
2022/12/27 07:34:35;;;;;;;;;;;21.30;60.80;;;;;;4969133;28;1261;-71
2022/12/27 07:37:01;;;;;;;;;;;21.20;61.00;;;;;;4971135;28;1962;-71
2022/12/27 07:39:26;;;;;;;;;;;21.20;61.10;;;;;;4971072;28;1312;-72
2022/12/27 07:41:52;;;;;;;;;;;21.20;62.20;;;;;;4971244;28;1320;-71
2022/12/27 07:44:17;;;;;;;;;;;21.20;61.50;;;;;;4971131;28;1187;-71
2022/12/27 07:46:42;;;;;;;;;;;21.20;61.70;;;;;;4971197;28;1006;-71
2022/12/27 07:49:08;;;;;;;;;;;21.20;61.70;;;;;;4970101;28;1332;-72
2022/12/27 07:51:34;;;;;;;;;;;21.10;62.40;;;;;;4970918;28;1288;-69
2022/12/27 07:53:59;;;;;;;;;;;21.10;62.30;;;;;;4971235;28;980;-70
2022/12/27 07:56:25;;;;;;;;;;;21.10;62.30;;;;;;4971320;28;887;-69
2022/12/27 07:58:51;;;;;;;;;;;21.10;62.90;;;;;;4969826;28;1903;-70
2022/12/27 08:01:16;;;;;;;;;;;21.10;62.90;;;;;;4971409;28;1384;-69
2022/12/27 08:03:42;;;;;;;;;;;21.10;62.80;;;;;;4969690;28;1516;-69
2022/12/27 08:06:15;;;;;;;;;;;21.00;63.40;;;;;;4968870;28;878;-70
2022/12/27 08:08:41;;;;;;;;;;;21.00;63.00;;;;;;4969271;28;872;-69
2022/12/27 08:11:07;;;;;;;;;;;21.00;63.00;;;;;;4970192;28;1257;-69
2022/12/27 08:13:32;;;;;;;;;;;21.00;63.10;;;;;;4953091;28;1467;-69
2022/12/27 08:15:57;;;;;;;;;;;21.00;63.10;;;;;;4969454;28;932;-69
2022/12/27 08:18:23;;;;;;;;;;;21.00;63.00;;;;;;4969073;28;1919;-69
2022/12/27 08:20:49;;;;;;;;;;;20.90;63.10;;;;;;4970016;28;1241;-70
2022/12/27 08:23:15;;;;;;;;;;;20.90;63.20;;;;;;4970651;28;974;-71
2022/12/27 08:25:40;;;;;;;;;;;20.90;62.80;;;;;;4970305;28;871;-69
2022/12/27 08:28:06;;;;;;;;;;;20.90;62.70;;;;;;4969179;28;896;-69
2022/12/27 08:30:32;;;;;;;;;;;20.90;62.60;;;;;;4969816;28;1356;-69
2022/12/27 08:32:57;;;;;;;;;;;20.90;62.50;;;;;;4969072;28;1063;-69
2022/12/27 08:35:23;;;;;;;;;;;20.90;62.30;;;;;;4968891;28;1417;-69
2022/12/27 08:37:48;;;;;;;;;;;21.00;62.30;;;;;;4967690;28;1938;-69
2022/12/27 08:40:14;;;;;;;;;;;21.00;62.20;;;;;;4968747;28;1357;-70
2022/12/27 08:42:39;;;;;;;;;;;21.00;62.10;;;;;;4970195;28;869;-70
2022/12/27 08:45:05;;;;;;;;;;;21.00;62.00;;;;;;4971374;28;1334;-70
2022/12/27 08:47:30;;;;;;;;;;;21.10;62.00;;;;;;4972697;28;891;-70
2022/12/27 08:49:56;;;;;;;;;;;21.10;62.70;;;;;;4988842;28;1342;-70
2022/12/27 08:52:21;;;;;;;;;;;21.10;62.30;;;;;;4973506;28;860;-69
2022/12/27 08:54:47;;;;;;;;;;;21.10;62.10;;;;;;4973523;28;959;-69
2022/12/27 08:57:12;;;;;;;;;;;21.10;62.10;;;;;;4974877;28;1975;-69
2022/12/27 08:59:37;;;;;;;;;;;21.10;62.00;;;;;;4973344;28;1309;-69
2022/12/27 09:02:03;;;;;;;;;;;21.10;62.10;;;;;;4972188;28;901;-70
2022/12/27 09:04:28;;;;;;;;;;;21.10;62.20;;;;;;4973513;28;1303;-69
2022/12/27 09:06:54;;;;;;;;;;;21.10;62.30;;;;;;4973390;28;1058;-70
2022/12/27 09:09:20;;;;;;;;;;;21.10;62.80;;;;;;4974245;28;797;-70
2022/12/27 09:11:45;;;;;;;;;;;21.00;62.70;;;;;;4988567;28;1323;-71
2022/12/27 09:14:11;;;;;;;;;;;21.00;62.80;;;;;;4972270;28;863;-69
2022/12/27 09:16:37;;;;;;;;;;;21.00;62.80;;;;;;4973513;28;859;-70
2022/12/27 09:19:02;;;;;;;;;;;21.00;62.80;;;;;;4971864;28;1903;-69
2022/12/27 09:21:28;;;;;;;;;;;21.00;63.10;;;;;;4972725;28;1382;-69
2022/12/27 09:23:54;;;;;;;;;;;20.90;63.20;;;;;;4947333;28;1261;-69
2022/12/27 09:26:20;;;;;;;;;;;20.90;63.40;;;;;;4971485;28;895;-71
2022/12/27 09:28:46;;;;;;;;;;;20.90;63.60;;;;;;4972607;28;975;-71
2022/12/27 09:31:11;;;;;;;;;;;20.90;63.50;;;;;;4971437;28;1252;-71
2022/12/27 09:33:37;;;;;;;;;;;20.90;63.60;;;;;;4973474;28;1216;-70
2022/12/27 09:36:03;;;;;;;;;;;20.90;63.90;;;;;;4971163;28;2310;-71
2022/12/27 09:38:28;;;;;;;;;;;20.80;64.00;;;;;;4972684;28;1961;-71
2022/12/27 09:40:54;;;;;;;;;;;20.80;64.30;;;;;;4970157;28;1376;-70
2022/12/27 09:43:20;;;;;;;;;;;20.80;64.60;;;;;;4971528;28;848;-70
2022/12/27 09:45:47;;;;;;;;;;;20.80;64.80;;;;;;4953747;28;1182;-70
2022/12/27 09:48:14;;;;;;;;;;;20.80;64.50;;;;;;4970721;28;844;-70
2022/12/27 09:50:49;;;;;;;;;;;20.80;64.70;;;;;;4972640;28;1273;-70
2022/12/27 09:53:31;;;;;;;;;;;20.80;64.80;;;;;;4972731;28;915;-70
2022/12/27 09:55:57;;;;;;;;;;;20.70;64.60;;;;;;4954717;28;1359;-72
2022/12/27 09:58:22;;;;;;;;;;;20.70;65.10;;;;;;4971134;28;1902;-70
2022/12/27 10:00:48;;;;;;;;;;;20.70;65.10;;;;;;4972309;28;1702;-69
2022/12/27 10:03:14;;;;;;;;;;;20.70;65.10;;;;;;4972138;28;1371;-70
2022/12/27 10:05:39;;;;;;;;;;;20.70;65.00;;;;;;4973182;28;851;-70
2022/12/27 10:08:31;;;;;;;;;;;20.70;64.80;;;;;;4971316;28;1618;-69
2022/12/27 10:11:37;;;;;;;;;;;20.70;64.90;;;;;;4969280;28;1284;-70
2022/12/27 10:14:21;;;;;;;;;;;20.70;64.80;;;;;;4969057;28;843;-70
2022/12/27 10:16:53;;;;;;;;;;;20.70;64.90;;;;;;4972543;28;1977;-71
2022/12/27 10:19:37;;;;;;;;;;;20.70;64.70;;;;;;4970238;28;824;-69
2022/12/27 10:22:19;;;;;;;;;;;20.70;64.70;;;;;;4972056;28;954;-70
2022/12/27 10:24:46;;;;;;;;;;;20.70;64.70;;;;;;4970739;28;1026;-69
2022/12/27 10:27:13;;;;;;;;;;;20.70;64.50;;;;;;4970724;28;1402;-70
2022/12/27 10:29:38;;;;;;;;;;;20.70;64.60;;;;;;4970488;28;1343;-69
2022/12/27 10:32:04;;;;;;;;;;;20.70;64.50;;;;;;4972026;28;1340;-69
2022/12/27 10:34:29;;;;;;;;;;;20.70;64.40;;;;;;4971854;28;934;-69
2022/12/27 10:36:55;;;;;;;;;;;20.70;64.40;;;;;;4971685;28;1930;-70
2022/12/27 10:39:25;;;;;;;;;;;20.70;64.30;;;;;;4970093;28;1302;-71
2022/12/27 10:41:53;;;;;;;;;;;20.70;64.30;;;;;;4971699;28;1268;-70
2022/12/27 10:44:18;;;;;;;;;;;20.70;64.40;;;;;;4971909;28;975;-70
2022/12/27 10:46:48;;;;;;;;;;;20.70;64.20;;;;;;4971483;28;850;-71
2022/12/27 10:49:24;;;;;;;;;;;20.70;64.00;;;;;;4953304;28;1201;-72
2022/12/27 10:51:50;;;;;;;;;;;20.70;64.00;;;;;;4970939;28;1230;-72
2022/12/27 10:54:20;;;;;;;;;;;20.70;63.80;;;;;;4970269;28;863;-70
2022/12/27 10:56:46;;;;;;;;;;;20.70;63.80;;;;;;4969257;28;887;-71
2022/12/27 10:59:24;;;;;;;;;;;20.80;63.90;;;;;;4971885;28;1883;-71
2022/12/27 11:02:10;;;;;;;;;;;20.80;63.90;;;;;;4969588;28;1272;-70
2022/12/27 11:04:36;;;;;;;;;;;20.70;63.90;;;;;;4962026;28;1353;-71
2022/12/27 11:07:01;;;;;;;;;;;20.70;63.80;;;;;;4970897;28;861;-70
2022/12/27 11:09:33;;;;;;;;;;;20.70;63.70;;;;;;4970679;28;908;-70
2022/12/27 11:12:18;;;;;;;;;;;20.70;63.90;;;;;;4969736;28;1308;-70
2022/12/27 11:14:52;;;;;;;;;;;20.70;64.10;;;;;;4970536;28;1220;-70
2022/12/27 11:17:18;;;;;;;;;;;20.70;63.90;;;;;;4970604;28;1969;-71
2022/12/27 11:19:43;;;;;;;;;;;20.80;64.10;;;;;;4969481;28;1368;-70
2022/12/27 11:22:09;;;;;;;;;;;20.70;63.90;;;;;;4969796;28;904;-70
2022/12/27 11:24:34;;;;;;;;;;;20.80;64.10;;;;;;4970868;28;1027;-70
2022/12/27 11:27:00;;;;;;;;;;;20.80;64.00;;;;;;4969806;28;839;-70
2022/12/27 11:29:26;;;;;;;;;;;20.80;64.00;;;;;;4970770;28;1200;-70
2022/12/27 11:31:52;;;;;;;;;;;20.80;64.00;;;;;;4970931;28;1303;-71
2022/12/27 11:34:21;;;;;;;;;;;20.80;64.10;;;;;;4969172;28;903;-70
2022/12/27 11:36:47;;;;;;;;;;;20.80;64.30;;;;;;4970902;28;839;-67
2022/12/27 11:39:31;;;;;;;;;;;20.80;64.20;;;;;;4969949;28;1895;-68
2022/12/27 11:41:57;;;;;;;;;;;20.80;64.20;;;;;;4971881;28;1281;-68
2022/12/27 11:44:22;;;;;;;;;;;20.80;64.80;;;;;;4970291;28;891;-68
2022/12/27 11:46:57;;;;;;;;;;;20.80;64.00;;;;;;4970650;28;967;-69
2022/12/27 11:49:25;;;;;;;;;;;20.80;63.80;;;;;;4970418;28;857;-69
2022/12/27 11:51:59;;;;;;;;;;;20.80;63.80;;;;;;4969400;28;1197;-69
2022/12/27 11:54:24;;;;;;;;;;;20.80;64.00;;;;;;4969027;28;886;-68
2022/12/27 11:56:51;;;;;;;;;;;20.80;63.70;;;;;;4970668;28;921;-70
2022/12/27 11:59:17;;;;;;;;;;;20.80;64.00;;;;;;4969215;28;1279;-68
2022/12/27 12:02:01;;;;;;;;;;;20.90;64.20;;;;;;4970892;28;1356;-70
2022/12/27 12:04:41;;;;;;;;;;;20.90;63.80;;;;;;4971349;28;1323;-70
2022/12/27 12:07:10;;;;;;;;;;;21.00;63.50;;;;;;4970613;28;888;-70
2022/12/27 12:09:56;;;;;;;;;;;21.00;63.20;;;;;;4968923;28;1362;-70
2022/12/27 12:12:43;;;;;;;;;;;20.90;62.30;;;;;;4939899;28;1580;-69
2022/12/27 12:15:24;;;;;;;;;;;20.90;62.70;;;;;;4969295;28;907;-69
2022/12/27 12:17:49;;;;;;;;;;;20.80;61.70;;;;;;4968693;28;1919;-68
2022/12/27 12:20:33;;;;;;;;;;;20.80;61.80;;;;;;4973135;28;1261;-69
2022/12/27 12:23:01;;;;;;;;;;;20.70;61.90;;;;;;4973079;28;856;-69
2022/12/27 12:25:45;;;;;;;;;;;20.70;62.00;;;;;;4973963;28;995;-69
2022/12/27 12:28:29;;;;;;;;;;;20.70;62.70;;;;;;4973114;28;820;-68
2022/12/27 12:30:55;;;;;;;;;;;20.70;62.00;;;;;;4969887;28;1796;-70
2022/12/27 12:33:39;;;;;;;;;;;20.60;62.00;;;;;;4973067;28;939;-69
2022/12/27 12:36:19;;;;;;;;;;;20.60;62.00;;;;;;4973956;28;967;-68
2022/12/27 12:38:48;;;;;;;;;;;20.60;62.00;;;;;;4973702;28;1961;-69
2022/12/27 12:41:13;;;;;;;;;;;20.50;61.80;;;;;;4973222;28;1786;-68
2022/12/27 12:43:39;;;;;;;;;;;20.50;61.70;;;;;;4973160;28;947;-68
2022/12/27 12:46:13;;;;;;;;;;;20.40;61.70;;;;;;4973565;28;1042;-68
2022/12/27 12:48:57;;;;;;;;;;;20.40;61.70;;;;;;4973186;28;879;-68
2022/12/27 12:51:32;;;;;;;;;;;20.40;61.80;;;;;;4973211;28;1265;-68
2022/12/27 12:54:16;;;;;;;;;;;20.40;61.80;;;;;;4973885;28;860;-68
2022/12/27 12:57:00;;;;;;;;;;;20.40;61.70;;;;;;4973104;28;856;-68
2022/12/27 12:59:31;;;;;;;;;;;20.40;61.80;;;;;;4972175;28;1400;-69
2022/12/27 13:02:04;;;;;;;;;;;20.40;61.70;;;;;;4973201;28;1404;-68
2022/12/27 13:04:48;;;;;;;;;;;20.30;61.60;;;;;;4972064;28;990;-69
2022/12/27 13:07:20;;;;;;;;;;;20.30;61.80;;;;;;4972619;28;919;-68
2022/12/27 13:09:58;;;;;;;;;;;20.30;61.70;;;;;;4971327;28;1419;-68
2022/12/27 13:12:42;;;;;;;;;;;20.30;61.70;;;;;;4972528;28;813;-68
2022/12/27 13:15:34;;;;;;;;;;;20.20;61.70;;;;;;4973345;28;895;-69
2022/12/27 13:18:05;;;;;;;;;;;20.20;61.70;;;;;;4945907;28;1935;-69
2022/12/27 13:20:37;;;;;;;;;;;20.20;61.60;;;;;;4973007;28;1322;-69
2022/12/27 13:23:22;;;;;;;;;;;20.20;61.70;;;;;;4972046;28;1885;-70
2022/12/27 13:25:52;;;;;;;;;;;20.20;61.70;;;;;;4972510;28;1121;-70
2022/12/27 13:28:28;;;;;;;;;;;20.10;61.60;;;;;;4971328;28;790;-69
2022/12/27 13:30:56;;;;;;;;;;;20.10;61.60;;;;;;4971240;28;1253;-69
2022/12/27 13:33:24;;;;;;;;;;;20.10;61.60;;;;;;4975392;28;896;-68
2022/12/27 13:36:02;;;;;;;;;;;20.10;61.60;;;;;;4970794;28;837;-70
2022/12/27 13:38:37;;;;;;;;;;;20.10;61.60;;;;;;4972627;28;1952;-70
2022/12/27 13:41:14;;;;;;;;;;;20.10;61.50;;;;;;4971539;28;1764;-68
2022/12/27 13:44:00;;;;;;;;;;;20.10;61.60;;;;;;4967804;28;1705;-73
2022/12/27 13:46:29;;;;;;;;;;;20.00;61.50;;;;;;4970570;28;915;-73
2022/12/27 13:48:57;;;;;;;;;;;20.10;61.60;;;;;;4972449;28;904;-72
2022/12/27 13:51:23;;;;;;;;;;;20.10;61.70;;;;;;4971782;28;1363;-70
2022/12/27 13:54:07;;;;;;;;;;;20.00;61.60;;;;;;4971106;28;1330;-71
2022/12/27 13:56:40;;;;;;;;;;;20.00;61.60;;;;;;4972168;28;876;-71
2022/12/27 13:59:12;;;;;;;;;;;20.00;61.70;;;;;;4970177;28;1969;-73
2022/12/27 14:01:44;;;;;;;;;;;20.00;61.60;;;;;;4972578;28;1273;-72
2022/12/27 14:04:16;;;;;;;;;;;20.00;61.70;;;;;;4944589;28;1426;-69
2022/12/27 14:06:45;;;;;;;;;;;20.00;61.70;;;;;;4971248;28;1512;-67
2022/12/27 14:09:30;;;;;;;;;;;19.90;61.60;;;;;;4971963;28;1641;-68
2022/12/27 14:12:06;;;;;;;;;;;19.90;61.60;;;;;;4959814;28;1545;-70
2022/12/27 14:14:31;;;;;;;;;;;19.90;61.60;;;;;;4969378;28;1268;-70
2022/12/27 14:17:03;;;;;;;;;;;19.90;61.70;;;;;;4970894;28;1963;-72
2022/12/27 14:19:32;;;;;;;;;;;19.90;61.60;;;;;;4969154;28;2370;-68
2022/12/27 14:22:08;;;;;;;;;;;19.90;61.70;;;;;;4970282;28;1426;-69
2022/12/27 14:24:34;;;;;;;;;;;19.90;61.70;;;;;;4972879;28;1450;-70
2022/12/27 14:27:19;;;;;;;;;;;19.80;61.60;;;;;;4970893;28;1358;-70
2022/12/27 14:30:03;;;;;;;;;;;19.80;61.60;;;;;;4970149;28;1425;-70
2022/12/27 14:32:44;;;;;;;;;;;19.80;61.70;;;;;;4969400;28;1352;-72
2022/12/27 14:35:16;;;;;;;;;;;19.80;61.60;;;;;;4971867;28;1321;-72
2022/12/27 14:37:48;;;;;;;;;;;19.80;61.70;;;;;;4949575;28;1899;-72
2022/12/27 14:40:29;;;;;;;;;;;19.80;61.80;;;;;;4973242;28;1360;-71
2022/12/27 14:43:04;;;;;;;;;;;19.80;61.90;;;;;;4969226;28;1798;-73
2022/12/27 14:45:39;;;;;;;;;;;19.80;61.80;;;;;;4971339;28;1335;-73
2022/12/27 14:48:15;;;;;;;;;;;19.80;61.90;;;;;;4971323;28;1450;-72
2022/12/27 14:50:41;;;;;;;;;;;19.80;61.90;;;;;;4970625;28;1413;-73
2022/12/27 14:53:14;;;;;;;;;;;19.70;61.80;;;;;;4971309;28;1514;-72
2022/12/27 14:55:51;;;;;;;;;;;19.70;61.80;;;;;;4985569;28;1440;-72
2022/12/27 14:58:32;;;;;;;;;;;19.70;61.80;;;;;;4970217;28;1985;-72
2022/12/27 15:00:57;;;;;;;;;;;19.70;61.90;;;;;;4970754;28;1304;-71
2022/12/27 15:03:31;;;;;;;;;;;19.70;61.90;;;;;;4971010;28;1377;-71
2022/12/27 15:06:06;;;;;;;;;;;19.70;61.90;;;;;;4969607;28;1074;-71
2022/12/27 15:08:35;;;;;;;;;;;19.70;61.90;;;;;;4953554;28;1384;-71
2022/12/27 15:11:00;;;;;;;;;;;19.70;62.00;;;;;;4968887;28;1363;-70
2022/12/27 15:13:28;;;;;;;;;;;19.60;62.00;;;;;;4971272;28;884;-70
2022/12/27 15:15:57;;;;;;;;;;;19.60;61.90;;;;;;4971789;28;896;-71
2022/12/27 15:18:41;;;;;;;;;;;19.60;61.90;;;;;;4969018;28;2174;-70
2022/12/27 15:21:39;;;;;;;;;;;19.70;62.00;;;;;;4970542;28;1359;-71
2022/12/27 15:24:10;;;;;;;;;;;19.60;61.90;;;;;;4946142;28;1456;-70
2022/12/27 15:26:45;;;;;;;;;;;19.60;61.90;;;;;;4971216;28;1089;-70
2022/12/27 15:29:10;;;;;;;;;;;19.60;62.00;;;;;;4970275;28;824;-70
2022/12/27 15:31:55;;;;;;;;;;;19.60;62.00;;;;;;4971283;28;1263;-71
2022/12/27 15:34:39;;;;;;;;;;;19.60;62.00;;;;;;4971226;28;813;-70
2022/12/27 15:37:04;;;;;;;;;;;19.60;62.00;;;;;;4971129;28;2059;-70
2022/12/27 15:39:33;;;;;;;;;;;19.60;61.90;;;;;;4969934;28;1296;-71
2022/12/27 15:42:17;;;;;;;;;;;19.60;61.90;;;;;;4970525;28;1324;-72
2022/12/27 15:44:45;;;;;;;;;;;19.50;61.90;;;;;;4970786;28;1065;-71
2022/12/27 15:47:30;;;;;;;;;;;19.60;61.90;;;;;;4970740;28;876;-71
2022/12/27 15:49:59;;;;;;;;;;;19.50;61.90;;;;;;4969352;28;1322;-70
2022/12/27 15:52:35;;;;;;;;;;;19.50;61.90;;;;;;4970009;28;922;-69
2022/12/27 15:55:03;;;;;;;;;;;19.50;62.70;;;;;;4972285;28;908;-69
2022/12/27 15:57:34;;;;;;;;;;;19.50;61.90;;;;;;4974620;28;1914;-70
2022/12/27 16:00:13;;;;;;;;;;;19.50;61.90;;;;;;4974815;28;1292;-71
2022/12/27 16:02:42;;;;;;;;;;;19.50;61.90;;;;;;4973738;28;1139;-70
2022/12/27 16:05:07;;;;;;;;;;;19.50;61.90;;;;;;4975270;28;990;-71
2022/12/27 16:07:51;;;;;;;;;;;19.50;61.90;;;;;;4975217;28;853;-70
2022/12/27 16:10:34;;;;;;;;;;;19.50;61.90;;;;;;4971636;28;1315;-69
2022/12/27 16:13:08;;;;;;;;;;;19.50;61.90;;;;;;4974612;28;895;-69
2022/12/27 16:15:34;;;;;;;;;;;19.50;61.90;;;;;;4975090;28;872;-71
2022/12/27 16:18:00;;;;;;;;;;;19.50;61.90;;;;;;4975843;28;1973;-69
2022/12/27 16:20:25;;;;;;;;;;;19.50;62.00;;;;;;4974348;28;1397;-69
2022/12/27 16:22:57;;;;;;;;;;;19.50;62.00;;;;;;4975061;28;999;-70
2022/12/27 16:25:22;;;;;;;;;;;19.50;62.00;;;;;;4973125;28;959;-69